• Join FlightAware (Why Join?)
  • Login
  • US Flag 
Rudolph Flight #1: Arrived! 
07:42AM EST


 

Airport Tracker/Info


-or-


 

Live Flight TrackerFlight Track Log ✈ ASQ6188 ✈ 29-Jul-2013 ✈ KCRW - KORD

Flight Track Log - Related Links

Times and Time Zones

All times are in EDT time to prevent confusion due to time zone crossing. See the ASQ6188 flight status page for this flight to view local times or setup timezone preferences in your user account.

Time Position Orientation Groundspeed Altitude Reporting Facility
EDT Latitude Longitude Course Direction KTS MPH feet Rate Location/Type
04:10PM 38.3633 -81.6931 289° West 231 266 4,800  Level Indianapolis Center
04:11PM 38.4222 -81.7442 326° Northwest 251 289 7,100 2,460 Climbing Indianapolis Center
04:12PM 38.4961 -81.8061 327° Northwest 264 304 9,900 2,220 Climbing Indianapolis Center
04:13PM 38.5611 -81.8619 326° Northwest 279 321 11,700 1,440 Climbing Indianapolis Center
04:14PM 38.7178 -81.9780 317° Northwest  Level FlightAware Approximate
04:14PM 38.6319 -81.9231 326° Northwest 301 346 13,000  Level Indianapolis Center
04:15PM 38.7072 -81.9861 327° Northwest 317 365 14,700 1,140 Climbing Indianapolis Center
04:16PM 38.7822 -82.0603 322° Northwest 339 390 15,400 840 Climbing Indianapolis Center
04:17PM 38.8519 -82.1517 314° West 357 411 16,500 1,020 Climbing Indianapolis Center
04:18PM 38.9228 -82.2417 315° West 358 412 17,600 840 Climbing Indianapolis Center
04:19PM 38.9958 -82.3350 315° West 369 425 18,300 840 Climbing Indianapolis Center
04:20PM 39.0839 -82.4489 315° West 374 430 19,400 960 Climbing Indianapolis Center
04:21PM 39.1583 -82.5461 315° West 379 436 20,400 900 Climbing Indianapolis Center
04:22PM 39.2311 -82.6392 315° West 383 441 21,300 780 Climbing Indianapolis Center
04:23PM 39.3058 -82.7367 315° West 380 437 22,100 840 Climbing Indianapolis Center
04:24PM 39.3928 -82.8500 315° West 378 435 23,100 960 Climbing Indianapolis Center
04:25PM 39.4669 -82.9469 315° West 376 433 24,200 960 Climbing Indianapolis Center
04:26PM 39.5397 -83.0422 315° West 371 427 25,200 960 Climbing Indianapolis Center
04:27PM 39.6122 -83.1383 314° West 370 426 26,200 960 Climbing Indianapolis Center
04:28PM 39.6836 -83.2325 315° West 364 419 27,200 840 Climbing Indianapolis Center
04:29PM 39.7539 -83.3253 315° West 358 412 28,000 360 Climbing Indianapolis Center
04:30PM 39.8278 -83.4225 315° West 364 419 28,000  Level Indianapolis Center
04:31PM 39.9033 -83.5244 314° West 383 441 28,000  Level Indianapolis Center
04:33PM 39.9869 -83.6364 314° West 393 452 28,000  Level Indianapolis Center
04:34PM 40.0653 -83.7414 314° West 399 459 28,000  Level Indianapolis Center
04:35PM 40.1436 -83.8469 314° West 401 461 28,000  Level Indianapolis Center
04:36PM 40.2358 -83.9717 314° West 405 466 28,000  Level Indianapolis Center
04:37PM 40.3111 -84.0797 312° West 398 458 28,000  Level Indianapolis Center
04:38PM 40.3794 -84.1917 309° West 390 449 28,000  Level Indianapolis Center
04:39PM 40.4436 -84.2981 308° West 373 429 28,000  Level Indianapolis Center
04:40PM 40.5031 -84.3944 309° West 343 395 28,000  Level Indianapolis Center
04:41PM 40.5614 -84.4903 309° West 334 384 28,000  Level Indianapolis Center
04:42PM 40.6197 -84.5872 308° West 335 386 28,000  Level Indianapolis Center
04:43PM 40.6900 -84.7022 309° West 341 392 28,000  Level Indianapolis Center
04:44PM 40.7486 -84.8025 308° West 343 395 28,000  Level Indianapolis Center
04:45PM 40.8100 -84.9022 309° West 346 398 28,000  Level Indianapolis Center
04:46PM 40.8483 -84.9669 308° West 343 395 28,000  Level Chicago Center
04:47PM 40.8964 -85.0786 300° West 346 398 28,000  Level Chicago Center
04:48PM 40.9447 -85.1997 298° West 359 413 28,000 -480 Level Chicago Center
04:49PM 40.9969 -85.3267 299° West 376 433 27,100 -960 Descending Chicago Center
04:50PM 41.0517 -85.4611 298° West 401 461 26,100 -1,020 Descending Chicago Center
04:51PM 41.1131 -85.6281 296° West 415 478 25,000 -540 Descending Chicago Center
04:52PM 41.1550 -85.7686 292° West 411 473 25,000  Level Chicago Center
04:53PM 41.1967 -85.9100 291° West 408 470 25,000  Level Chicago Center
04:54PM 41.2386 -86.0506 292° West 409 471 25,000  Level Chicago Center
04:55PM 41.2800 -86.1925 291° West 411 473 25,000 -120 Level Chicago Center
04:56PM 41.3219 -86.3347 291° West 413 475 24,800 -780 Descending Chicago Center
04:57PM 41.3628 -86.4761 291° West 410 472 23,400 -2,040 Descending Chicago Center
04:58PM 41.4114 -86.6453 291° West 408 470 20,700 -2,460 Descending Chicago Center
04:59PM 41.4522 -86.7856 291° West 407 468 18,400 -2,100 Descending Chicago Center
05:00PM 41.4911 -86.9233 291° West 400 460 16,400 -2,040 Descending Chicago Center
05:01PM 41.5278 -87.0564 290° West 385 443 14,200 -2,040 Descending Chicago Center
05:02PM 41.5647 -87.1861 291° West 376 433 12,200 -1,800 Descending Chicago Center
05:03PM 41.6139 -87.2975 301° West 355 409 10,600 -1,080 Descending Chicago Center
05:04PM 41.6864 -87.4175 309° West 345 397 10,000 -300 Descending Chicago Center
05:05PM 41.7467 -87.5158 309° West 343 395 10,000  Level Chicago Center
05:06PM 41.8100 -87.6236 308° West 344 396 10,000 -780 Level Chicago Center
05:07PM 41.8772 -87.6581 339° North 292 336 8,500 -1,560 Descending Chicago Center
05:08PM 41.9531 -87.6611 358° North 273 314 6,800 -1,740 Descending Chicago Center
05:09PM 42.0164 -87.6631 359° North 235 270 5,000 -1,140 Descending Chicago Center
05:10PM 42.0806 -87.6808 348° North 228 262 4,500 -1,140 Descending Chicago Center
05:12PM 42.0500 -87.8500 256° West 182 209 2,000 -1,260 Descending Chicago TRACON
05:13PM 42.0167 -87.8833 217° Southwest 149 171 1,100 -900 Descending Chicago TRACON